Small Craft Advisory
 click here for details
SBYC BurgeeSandy Bay Yacht Club
Weather Center


Nearby METAR Reports

Nearby METAR Reports

 

KBVY - Beverly, Massachusetts, USA
Distance from station: WSW 16mi, 26km
Updated: Mon, 20-May-2019 1:53pm EDT
Clear
Clear
 Wind from WSW
Wind: WSW 13 mph , 20 km/h, Gust: 23 mph , 37 km/h
Temperature: 81°F , 27°C
Heat Index: 83°F , 28°C
Dew Point: 64°F , 18°C
Humidity: 58%
Barometer: 29.68 inHg , 1005.1 hPa
Clouds: Clear
Visibility: 10 miles , 16 km
2019/05/20 17:53 KBVY 201753Z 25011G20KT 10SM CLR 27/18 A2968 RMK AO2 SLP045 T02720183 10272 20206 58024
KLWM - Lawrence, Massachusetts, USA
Distance from station: W 27mi, 43km
Updated: Mon, 20-May-2019 1:54pm EDT
Partly Cloudy
Partly Cloudy
 Wind from WSW
Wind: WSW 14 mph , 22 km/h, Gust: 23 mph , 37 km/h
Temperature: 82°F , 28°C
Heat Index: 83°F , 28°C
Dew Point: 63°F , 17°C
Humidity: 51%
Barometer: 29.70 inHg , 1005.8 hPa
Clouds: Partly Cloudy
Visibility: 10 miles , 16 km
Cloud details: Partly Cloudy 4500 ft
Partly Cloudy 5500 ft
2019/05/20 17:54 KLWM 201754Z 24012G20KT 10SM SCT045 SCT055 28/17 A2970 RMK AO2 SLP056 60000 T02780172 10278 20206 58024
 
KBOS - Boston, Massachusetts, USA
Distance from station: SW 29mi, 46km
Updated: Mon, 20-May-2019 1:54pm EDT
Partly Cloudy
Partly Cloudy
 Wind from WSW
Wind: WSW 15 mph , 24 km/h
Temperature: 84°F , 29°C
Heat Index: 85°F , 29°C
Dew Point: 64°F , 18°C
Humidity: 51%
Barometer: 29.69 inHg , 1005.4 hPa
Clouds: Partly Cloudy
Visibility: 10 miles , 16 km
Cloud details: Few Clouds 2500 ft
Partly Cloudy 3800 ft
Partly Cloudy 25000 ft
2019/05/20 17:54 KBOS 201754Z 25013KT 10SM FEW025 SCT038 SCT250 29/18 A2969 RMK AO2 SLP055 60000 T02940178 10294 20206 58023
KPSM - Portsmouth/Pease, New Hampshire, USA
Distance from station: NNW 30mi, 48km
Updated: Mon, 20-May-2019 1:56pm EDT
Mostly Cloudy
Mostly Cloudy
 Wind from WSW
Wind: WSW 12 mph , 19 km/h, Gust: 22 mph , 35 km/h
Temperature: 82°F , 28°C
Heat Index: 82°F , 28°C
Dew Point: 61°F , 16°C
Humidity: 48%
Barometer: 29.66 inHg , 1004.4 hPa
Clouds: Mostly Cloudy
Visibility: 10 miles , 16 km
Cloud details: Few Clouds 4500 ft
Partly Cloudy 5000 ft
Mostly Cloudy 7000 ft
Mostly Cloudy 25000 ft
2019/05/20 17:56 KPSM 201756Z 24010G19KT 10SM FEW045 SCT050 BKN070 BKN250 28/16 A2966 RMK AO2A SLP046 60000 T02750155 10284 20181 58019
 
KMHT - Manchester, New Hampshire, USA
Distance from station: WNW 46mi, 73km
Updated: Mon, 20-May-2019 1:53pm EDT
Partly Cloudy
Partly Cloudy
 Wind from SW
Wind: SW 13 mph , 20 km/h, Gust: 21 mph , 33 km/h
Temperature: 82°F , 28°C
Heat Index: 82°F , 28°C
Dew Point: 61°F , 16°C
Humidity: 48%
Barometer: 29.67 inHg , 1004.7 hPa
Clouds: Partly Cloudy
Visibility: 10 miles , 16 km
Cloud details: Few Clouds 4600 ft
Partly Cloudy 6000 ft
Partly Cloudy 25000 ft
2019/05/20 17:53 KMHT 201753Z 22011G18KT 10SM FEW046 SCT060 SCT250 28/16 A2967 RMK AO2 SLP055 60001 T02830156 10283 20211 58020
KPVC - Provincetown, Massachusetts, USA
Distance from station: SSE 46mi, 73km
Updated: Mon, 20-May-2019 1:56pm EDT
Clear
Clear
 Wind from SSW
Wind: SSW 16 mph , 26 km/h, Gust: 25 mph , 41 km/h
Temperature: 70°F , 21°C
Dew Point: 61°F , 16°C
Humidity: 73%
Barometer: 29.73 inHg , 1006.8 hPa
Clouds: Clear
Visibility: 10 miles , 16 km
2019/05/20 17:56 KPVC 201756Z AUTO 21014G22KT 10SM CLR 21/16 A2973 RMK AO2 SLP067 6//// T02110156 10211 20156 58026 PNO $
 
KDAW - Rochester, New Hampshire, USA
Distance from station: NNW 46mi, 74km
Updated: Mon, 20-May-2019 1:51pm EDT
Partly Cloudy
Partly Cloudy
 Wind from varies
Wind: varies 6 mph , 9 km/h
Temperature: 82°F , 28°C
Heat Index: 83°F , 28°C
Dew Point: 63°F , 17°C
Humidity: 51%
Barometer: 29.66 inHg , 1004.4 hPa
Clouds: Partly Cloudy
Visibility: 10 miles , 16 km
Cloud details: Few Clouds 3800 ft
Partly Cloudy 6000 ft
2019/05/20 17:51 KDAW 201751Z AUTO VRB05KT 10SM FEW038 SCT060 28/17 A2966 RMK AO2 SLP041 60000 T02830167 10283 20161 58020
KASH - Nashua/Boire Fld, New Hampshire, USA
Distance from station: W 47mi, 75km
Updated: Mon, 20-May-2019 1:56pm EDT
Mostly Cloudy
Mostly Cloudy
 Wind from W
Wind: W 9 mph , 15 km/h, Gust: 16 mph , 26 km/h
Temperature: 81°F , 27°C
Heat Index: 83°F , 28°C
Dew Point: 64°F , 18°C
Humidity: 58%
Barometer: 29.69 inHg , 1005.4 hPa
Clouds: Mostly Cloudy
Visibility: 10 miles , 16 km
Cloud details: Partly Cloudy 4900 ft
Mostly Cloudy 6000 ft
Mostly Cloudy 11000 ft
2019/05/20 17:56 KASH 201756Z 26008G14KT 230V300 10SM SCT049 BKN060 BKN110 27/18 A2969
 
KSFM - Sanford Muni, Maine, USA
Distance from station: N 50mi, 81km
Updated: Mon, 20-May-2019 1:56pm EDT
Haze, Partly cloudy
Haze, Partly cloudy
 Wind from SW
Wind: SW 13 mph , 20 km/h, Gust: 22 mph , 35 km/h
Temperature: 81°F , 27°C
Heat Index: 83°F , 28°C
Dew Point: 64°F , 18°C
Humidity: 58%
Barometer: 29.67 inHg , 1004.7 hPa
Summary: Haze
Clouds: Partly Cloudy
Visibility: 4 miles , 6 km
Cloud details: Few Clouds 4200 ft
Partly Cloudy 5500 ft
2019/05/20 17:56 KSFM 201756Z AUTO 22011G19KT 4SM HZ FEW042 SCT055 27/18 A2967 RMK AO2 SLP047 6//// T02720178 10272 20133 58022 PNO $

Metar display script from Saratoga-Weather.org

 



home

Copyright © Sandy Bay Yacht Club. All rights reserved.